Ben Bolt, Texas
Current Conditions -  °F | °C
As of 5:53 AM on Monday 22 Dec 2014 (Local Time) from KALI Reporting Station
Overcast Overcast  
Wind Chill: 62°   Ceiling: 700
Heat Index: 62°   Visibility: 10mi
Dew Point: 59°   Wind: 8mph
Humidity: 90%   Direction: 200°SSW
Pressure: 29.77"   Gusts: NA
Location:  27.65°N, 98.08°W
Report Text: KALI 221153Z AUTO 20007KT 10SM OVC007 17/15 A2977 RMK AO2 CIG 006V009 SLP080 T01670150 10167 20156 55009
Loading
Personal Weather Stations






























Interactive Weather Map New forecast layout! Learn more

10-Day Weather Forecast

Advertisements
Track Severe Weather on mobile